Terminal Aerodrome Forecast
Issued by NWS

Home | Current Version | Previous Version | Text Only | Print | Product List | Glossary On
Versions: 1 2 3 4 5 6 7 8 9 10 11 12 13 14 15 16 17 18 19 20 21 22 23 24 25
150
FTUS42 KMLB 051811 AAA
TAFTIX
TAF AMD
KTIX 051811Z 0518/0618 29015G25KT P6SM FEW020
     FM052330 29013G18KT P6SM SKC
     FM060200 29006KT P6SM SKC
     FM061400 30010KT P6SM FEW040=

USA.gov is the U.S. government's official web portal to all federal, state and local government web resources and services.